createdAt,value
2023-06-16T00:01:06.720Z,19.30
2023-06-16T00:03:36.125Z,19.20
2023-06-16T00:06:15.686Z,19.20
2023-06-16T00:08:46.267Z,19.10
2023-06-16T00:11:14.020Z,19.10
2023-06-16T00:13:42.164Z,19.00
2023-06-16T00:16:11.876Z,19.00
2023-06-16T00:18:41.950Z,19.00
2023-06-16T00:21:11.236Z,18.90
2023-06-16T00:23:37.847Z,18.90
2023-06-16T00:26:06.557Z,18.80
2023-06-16T00:28:35.338Z,18.80
2023-06-16T00:31:02.030Z,18.70
2023-06-16T00:33:34.040Z,18.70
2023-06-16T00:36:00.804Z,18.60
2023-06-16T00:38:29.909Z,18.60
2023-06-16T00:40:57.958Z,18.60
2023-06-16T00:43:31.128Z,18.50
2023-06-16T00:45:59.039Z,18.50
2023-06-16T00:48:28.265Z,18.50
2023-06-16T00:50:58.818Z,18.40
2023-06-16T00:53:26.607Z,18.40
2023-06-16T00:55:54.653Z,18.40
2023-06-16T00:58:23.519Z,18.30
2023-06-16T01:00:52.281Z,18.30
2023-06-16T01:03:23.125Z,18.30
2023-06-16T01:05:52.042Z,18.20
2023-06-16T01:08:41.184Z,18.20
2023-06-16T01:11:19.145Z,18.20
2023-06-16T01:14:03.057Z,18.20
2023-06-16T01:16:32.516Z,18.10
2023-06-16T01:19:11.482Z,18.10
2023-06-16T01:21:56.324Z,18.00
2023-06-16T01:24:24.599Z,18.00
2023-06-16T01:26:55.492Z,18.00
2023-06-16T01:29:26.110Z,18.00
2023-06-16T01:32:01.397Z,17.90
2023-06-16T01:34:29.339Z,17.90
2023-06-16T01:36:59.721Z,17.80
2023-06-16T01:39:28.337Z,17.80
2023-06-16T01:41:56.813Z,17.80
2023-06-16T01:44:26.697Z,17.80
2023-06-16T01:46:56.561Z,17.70
2023-06-16T01:49:24.474Z,17.70
2023-06-16T01:51:51.243Z,17.70
2023-06-16T01:54:19.947Z,17.60
2023-06-16T01:56:46.628Z,17.60
2023-06-16T01:59:17.396Z,17.60
2023-06-16T02:01:52.284Z,17.50
2023-06-16T02:04:27.352Z,17.50
2023-06-16T02:07:09.796Z,17.50
2023-06-16T02:09:39.074Z,17.50
2023-06-16T02:12:08.024Z,17.40
2023-06-16T02:14:41.566Z,17.40
2023-06-16T02:17:13.983Z,17.30
2023-06-16T02:19:46.391Z,17.30
2023-06-16T02:22:12.958Z,17.20
2023-06-16T02:24:43.878Z,17.30
2023-06-16T02:27:10.834Z,17.20
2023-06-16T02:29:37.472Z,17.20
2023-06-16T02:32:07.684Z,17.10
2023-06-16T02:34:37.773Z,17.10
2023-06-16T02:37:04.603Z,17.00
2023-06-16T02:39:33.414Z,17.00
2023-06-16T02:42:02.306Z,17.00
2023-06-16T02:44:28.877Z,17.00
2023-06-16T02:46:59.027Z,16.90
2023-06-16T02:49:27.226Z,16.90
2023-06-16T02:51:57.941Z,16.90
2023-06-16T02:54:30.764Z,16.80
2023-06-16T02:56:58.831Z,16.80
2023-06-16T02:59:42.393Z,16.80
2023-06-16T03:02:09.480Z,16.70
2023-06-16T03:04:53.527Z,16.70
2023-06-16T03:07:36.459Z,16.70
2023-06-16T03:10:10.039Z,16.70
2023-06-16T03:12:57.411Z,16.70
2023-06-16T03:15:24.407Z,16.60
2023-06-16T03:17:51.191Z,16.60
2023-06-16T03:20:20.189Z,16.60
2023-06-16T03:22:54.085Z,16.60
2023-06-16T03:25:24.306Z,16.50
2023-06-16T03:27:51.447Z,16.50
2023-06-16T03:30:21.439Z,16.50
2023-06-16T03:33:08.604Z,16.50
2023-06-16T03:35:46.274Z,16.40
2023-06-16T03:38:21.746Z,16.40
2023-06-16T03:40:51.638Z,16.40
2023-06-16T03:43:21.145Z,16.40
2023-06-16T03:45:48.165Z,16.40
2023-06-16T03:48:14.918Z,16.40
2023-06-16T03:50:51.523Z,16.40
2023-06-16T03:53:30.164Z,16.40
2023-06-16T03:55:59.887Z,16.40
2023-06-16T03:58:27.005Z,16.40
2023-06-16T04:00:53.754Z,16.40
2023-06-16T04:03:23.029Z,16.40
2023-06-16T04:05:49.887Z,16.40
2023-06-16T04:08:20.645Z,16.40
2023-06-16T04:10:48.385Z,16.40
2023-06-16T04:13:15.024Z,16.40
2023-06-16T04:15:43.688Z,16.40
2023-06-16T04:18:19.211Z,16.40
2023-06-16T04:20:48.821Z,16.40
2023-06-16T04:23:18.487Z,16.50
2023-06-16T04:25:46.251Z,16.50
2023-06-16T04:28:15.570Z,16.50
2023-06-16T04:30:55.340Z,16.50
2023-06-16T04:33:24.033Z,16.60
2023-06-16T04:38:34.618Z,16.60
2023-06-16T04:41:04.138Z,16.70
2023-06-16T04:43:30.877Z,16.80
2023-06-16T04:45:59.306Z,16.80
2023-06-16T04:48:27.075Z,16.90
2023-06-16T04:50:58.330Z,16.90
2023-06-16T04:53:26.246Z,17.00
2023-06-16T04:55:53.133Z,17.00
2023-06-16T04:58:20.319Z,17.10
2023-06-16T05:00:49.928Z,17.20
2023-06-16T05:03:17.509Z,17.20
2023-06-16T05:05:44.554Z,17.30
2023-06-16T05:08:12.205Z,17.40
2023-06-16T05:10:39.634Z,17.40
2023-06-16T05:13:06.240Z,17.50
2023-06-16T05:15:33.027Z,17.60
2023-06-16T05:18:00.759Z,17.70
2023-06-16T05:20:27.558Z,17.70
2023-06-16T05:22:54.343Z,17.80
2023-06-16T05:25:23.817Z,17.90
2023-06-16T05:27:50.605Z,18.00
2023-06-16T05:30:18.864Z,18.00
2023-06-16T05:32:45.730Z,18.10
2023-06-16T05:35:12.434Z,18.20
2023-06-16T05:37:45.115Z,18.30
2023-06-16T05:40:12.615Z,18.40
2023-06-16T05:42:39.495Z,18.40
2023-06-16T05:45:07.376Z,18.50
2023-06-16T05:47:34.066Z,18.60
2023-06-16T05:50:01.213Z,18.60
2023-06-16T05:52:28.512Z,18.70
2023-06-16T05:54:55.206Z,18.80
2023-06-16T05:57:31.304Z,18.80
2023-06-16T05:59:57.987Z,19.00
2023-06-16T06:02:29.162Z,19.00
2023-06-16T06:04:56.455Z,19.10
2023-06-16T06:07:23.275Z,19.10
2023-06-16T06:09:50.701Z,19.20
2023-06-16T06:12:18.660Z,19.30
2023-06-16T06:14:45.541Z,19.40
2023-06-16T06:17:12.309Z,19.50
2023-06-16T06:19:38.990Z,19.50
2023-06-16T06:22:05.964Z,19.60
2023-06-16T06:24:32.818Z,19.70
2023-06-16T06:26:59.931Z,19.80
2023-06-16T06:29:26.806Z,19.90
2023-06-16T06:31:53.432Z,20.00
2023-06-16T06:34:20.100Z,20.00
2023-06-16T06:36:49.496Z,20.10
2023-06-16T06:39:17.941Z,20.20
2023-06-16T06:41:44.908Z,20.30
2023-06-16T06:44:16.250Z,20.40
2023-06-16T06:46:50.315Z,20.40
2023-06-16T06:49:18.394Z,20.50
2023-06-16T06:51:45.943Z,20.60
2023-06-16T06:54:12.559Z,20.60
2023-06-16T06:56:39.485Z,20.70
2023-06-16T06:59:06.317Z,20.70
2023-06-16T07:01:35.926Z,20.80
2023-06-16T07:04:04.080Z,20.90
2023-06-16T07:06:31.023Z,21.00
2023-06-16T07:08:59.458Z,21.10
2023-06-16T07:11:26.240Z,21.10
2023-06-16T07:13:53.013Z,21.20
2023-06-16T07:16:20.238Z,21.20
2023-06-16T07:18:47.223Z,21.30
2023-06-16T07:21:13.835Z,21.40
2023-06-16T07:23:40.539Z,21.50
2023-06-16T07:26:07.254Z,21.50
2023-06-16T07:28:33.926Z,21.60
2023-06-16T07:31:00.745Z,21.70
2023-06-16T07:33:27.540Z,21.70
2023-06-16T07:35:54.192Z,21.80
2023-06-16T07:38:21.401Z,21.90
2023-06-16T07:40:48.054Z,21.90
2023-06-16T07:43:15.558Z,22.00
2023-06-16T07:45:42.201Z,22.00
2023-06-16T07:48:09.992Z,22.10
2023-06-16T07:50:37.208Z,22.20
2023-06-16T07:53:04.020Z,22.30
2023-06-16T07:55:30.712Z,22.30
2023-06-16T07:57:57.432Z,22.40
2023-06-16T08:00:24.142Z,22.50
2023-06-16T08:02:51.866Z,22.50
2023-06-16T08:05:19.080Z,22.60
2023-06-16T08:07:46.467Z,22.70
2023-06-16T08:10:16.000Z,22.70
2023-06-16T08:12:44.687Z,22.80
2023-06-16T08:15:13.708Z,22.80
2023-06-16T08:17:42.021Z,22.90
2023-06-16T08:20:10.339Z,23.00
2023-06-16T08:22:37.416Z,23.00
2023-06-16T08:25:05.510Z,23.10
2023-06-16T08:27:32.177Z,23.20
2023-06-16T08:29:59.331Z,23.20
2023-06-16T08:32:26.104Z,23.30
2023-06-16T08:34:52.845Z,23.30
2023-06-16T08:37:28.901Z,23.40
2023-06-16T08:39:56.871Z,23.40
2023-06-16T08:42:24.311Z,23.50
2023-06-16T08:44:53.339Z,23.60
2023-06-16T08:47:20.167Z,23.60
2023-06-16T08:49:47.692Z,23.70
2023-06-16T08:52:21.765Z,23.80
2023-06-16T08:54:58.430Z,23.80
2023-06-16T08:57:26.853Z,23.90
2023-06-16T08:59:57.229Z,24.00
2023-06-16T09:02:30.885Z,24.00
2023-06-16T09:04:59.444Z,24.00
2023-06-16T09:07:28.467Z,24.10
2023-06-16T09:09:56.236Z,24.20
2023-06-16T09:12:23.336Z,24.20
2023-06-16T09:14:51.586Z,24.30
2023-06-16T09:17:28.508Z,24.30
2023-06-16T09:19:56.244Z,24.50
2023-06-16T09:22:27.049Z,24.50
2023-06-16T09:24:58.385Z,24.50
2023-06-16T09:27:44.727Z,24.60
2023-06-16T09:30:16.250Z,24.70
2023-06-16T09:32:49.970Z,24.70
2023-06-16T09:35:17.616Z,24.80
2023-06-16T09:37:48.720Z,24.90
2023-06-16T09:40:17.545Z,24.90
2023-06-16T09:42:45.579Z,25.00
2023-06-16T09:45:17.178Z,25.00
2023-06-16T09:47:46.032Z,25.10
2023-06-16T09:50:14.657Z,25.10
2023-06-16T09:52:43.877Z,25.10
2023-06-16T09:55:12.654Z,25.20
2023-06-16T09:57:42.690Z,25.20
2023-06-16T10:00:16.754Z,25.30
2023-06-16T10:02:51.259Z,25.30
2023-06-16T10:05:23.123Z,25.40
2023-06-16T10:07:53.147Z,25.40
2023-06-16T10:10:24.654Z,25.40
2023-06-16T10:12:54.795Z,25.50
2023-06-16T10:15:26.779Z,25.60
2023-06-16T10:17:56.454Z,25.70
2023-06-16T10:20:27.739Z,25.70
2023-06-16T10:22:55.814Z,25.80
2023-06-16T10:25:22.741Z,25.80
2023-06-16T10:27:51.810Z,25.90
2023-06-16T10:30:20.357Z,25.90
2023-06-16T10:32:48.419Z,26.00
2023-06-16T10:35:15.908Z,26.10
2023-06-16T10:37:42.838Z,26.10
2023-06-16T10:40:13.653Z,26.20
2023-06-16T10:42:42.038Z,26.20
2023-06-16T10:45:29.967Z,26.30
2023-06-16T10:47:58.745Z,26.40
2023-06-16T10:50:40.820Z,26.40
2023-06-16T10:53:10.926Z,26.50
2023-06-16T10:55:40.304Z,26.40
2023-06-16T10:58:22.035Z,26.50
2023-06-16T11:01:23.410Z,26.50
2023-06-16T11:04:00.917Z,26.60
2023-06-16T11:06:28.314Z,26.70
2023-06-16T11:08:57.282Z,26.70
2023-06-16T11:11:33.751Z,26.80
2023-06-16T11:14:03.144Z,26.90
2023-06-16T11:16:29.945Z,27.00
2023-06-16T11:18:58.332Z,27.00
2023-06-16T11:21:26.870Z,27.00
2023-06-16T11:23:54.655Z,27.10
2023-06-16T11:26:24.373Z,27.10
2023-06-16T11:28:52.184Z,27.20
2023-06-16T11:31:20.554Z,27.20
2023-06-16T11:33:48.259Z,27.20
2023-06-16T11:36:23.754Z,27.30
2023-06-16T11:38:53.523Z,27.40
2023-06-16T11:41:23.107Z,27.50
2023-06-16T11:43:53.911Z,27.50
2023-06-16T11:46:29.088Z,27.50
2023-06-16T11:48:56.043Z,27.60
2023-06-16T11:51:25.751Z,27.70
2023-06-16T11:53:53.244Z,27.70
2023-06-16T11:56:21.884Z,27.70
2023-06-16T11:58:49.495Z,27.80
2023-06-16T12:01:17.485Z,27.90
2023-06-16T12:04:03.618Z,27.90
2023-06-16T12:06:32.959Z,28.00
2023-06-16T12:09:02.425Z,28.00
2023-06-16T12:11:33.754Z,28.10
2023-06-16T12:14:01.438Z,28.20
2023-06-16T12:16:28.252Z,28.30
2023-06-16T12:18:56.706Z,28.40
2023-06-16T12:21:25.457Z,28.50
2023-06-16T12:23:53.334Z,28.60
2023-06-16T12:26:40.964Z,28.70
2023-06-16T12:29:16.838Z,28.80
2023-06-16T12:31:51.672Z,28.90
2023-06-16T12:34:31.328Z,29.00
2023-06-16T12:37:07.547Z,29.00
2023-06-16T12:39:35.471Z,29.10
2023-06-16T12:42:04.704Z,29.20
2023-06-16T12:44:53.922Z,29.30
2023-06-16T12:47:25.218Z,29.40
2023-06-16T12:49:56.230Z,29.40
2023-06-16T12:52:24.535Z,29.60
2023-06-16T12:54:52.787Z,29.60
2023-06-16T12:57:21.160Z,29.70
2023-06-16T12:59:48.121Z,29.80
2023-06-16T13:02:17.044Z,29.90
2023-06-16T13:04:43.767Z,30.10
2023-06-16T13:07:10.772Z,30.20
2023-06-16T13:09:38.659Z,30.40
2023-06-16T13:12:09.417Z,30.60
2023-06-16T13:14:38.573Z,30.70
2023-06-16T13:17:06.154Z,30.90
2023-06-16T13:19:33.207Z,31.10
2023-06-16T13:21:59.911Z,31.30
2023-06-16T13:24:26.623Z,31.50
2023-06-16T13:26:53.336Z,31.70
2023-06-16T13:29:20.311Z,31.90
2023-06-16T13:31:47.095Z,32.30
2023-06-16T13:34:14.202Z,32.70
2023-06-16T13:36:43.242Z,33.30
2023-06-16T13:39:10.448Z,34.20
2023-06-16T13:41:37.309Z,35.30
2023-06-16T13:44:04.241Z,36.40
2023-06-16T13:46:30.921Z,37.60
2023-06-16T13:48:57.567Z,38.80
2023-06-16T13:51:24.430Z,40.10
2023-06-16T13:53:51.777Z,41.20
2023-06-16T13:56:18.474Z,42.20
2023-06-16T13:58:46.617Z,43.20
2023-06-16T14:01:13.645Z,44.10
2023-06-16T14:03:41.814Z,45.00
2023-06-16T14:06:08.655Z,45.80
2023-06-16T14:08:35.322Z,46.60
2023-06-16T14:11:02.311Z,47.20
2023-06-16T14:13:31.699Z,47.90
2023-06-16T14:16:01.212Z,48.40
2023-06-16T14:18:27.821Z,48.90
2023-06-16T14:20:54.455Z,49.40
2023-06-16T14:23:21.068Z,49.60
2023-06-16T14:25:50.033Z,49.60
2023-06-16T14:28:16.709Z,49.50
2023-06-16T14:30:43.391Z,49.40
2023-06-16T14:33:11.907Z,49.00
2023-06-16T14:35:39.375Z,48.50
2023-06-16T14:38:06.171Z,47.80
2023-06-16T14:40:32.974Z,47.10
2023-06-16T14:42:59.779Z,46.30
2023-06-16T14:45:26.454Z,45.50
2023-06-16T14:47:53.165Z,44.70
2023-06-16T14:50:20.630Z,43.80
2023-06-16T14:52:47.470Z,43.10
2023-06-16T14:55:14.172Z,42.40
2023-06-16T14:57:41.510Z,41.80
2023-06-16T15:00:08.912Z,41.20
2023-06-16T15:02:35.957Z,40.60
2023-06-16T15:05:02.880Z,40.00
2023-06-16T15:07:29.596Z,39.50
2023-06-16T15:09:56.214Z,38.90
2023-06-16T15:12:22.812Z,38.50
2023-06-16T15:14:49.502Z,38.00
2023-06-16T15:17:16.207Z,37.60
2023-06-16T15:19:43.247Z,37.60
2023-06-16T15:22:10.045Z,37.90
2023-06-16T15:24:39.171Z,38.60
2023-06-16T15:27:06.393Z,39.60
2023-06-16T15:29:32.992Z,40.60
2023-06-16T15:31:59.646Z,41.80
2023-06-16T15:34:26.802Z,42.80
2023-06-16T15:36:53.441Z,43.90
2023-06-16T15:39:24.027Z,44.80
2023-06-16T15:41:53.057Z,45.50
2023-06-16T15:44:19.757Z,45.90
2023-06-16T15:46:46.567Z,46.00
2023-06-16T15:49:13.262Z,46.10
2023-06-16T15:51:40.550Z,46.20
2023-06-16T15:54:09.123Z,46.60
2023-06-16T15:56:35.958Z,47.10
2023-06-16T15:59:02.821Z,47.50
2023-06-16T16:01:29.760Z,48.10
2023-06-16T16:03:56.830Z,48.50
2023-06-16T16:06:23.757Z,49.00
2023-06-16T16:08:50.378Z,49.40
2023-06-16T16:11:17.093Z,49.80
2023-06-16T16:13:44.929Z,49.70
2023-06-16T16:16:11.746Z,49.50
2023-06-16T16:18:38.692Z,49.20
2023-06-16T16:21:05.437Z,49.00
2023-06-16T16:23:43.683Z,48.80
2023-06-16T16:26:11.654Z,48.60
2023-06-16T16:28:38.379Z,48.50
2023-06-16T16:31:14.273Z,48.10
2023-06-16T16:33:41.349Z,47.70
2023-06-16T16:36:10.819Z,46.90
2023-06-16T16:38:39.169Z,46.10
2023-06-16T16:41:05.791Z,45.10
2023-06-16T16:43:32.475Z,44.10
2023-06-16T16:45:59.179Z,43.20
2023-06-16T16:48:28.187Z,42.20
2023-06-16T16:50:57.080Z,41.60
2023-06-16T16:53:26.097Z,41.40
2023-06-16T16:55:54.737Z,41.40
2023-06-16T16:58:23.656Z,41.70
2023-06-16T17:00:57.509Z,42.10
2023-06-16T17:03:30.630Z,42.50
2023-06-16T17:06:02.854Z,42.90
2023-06-16T17:08:29.524Z,43.30
2023-06-16T17:11:05.086Z,43.70
2023-06-16T17:13:32.079Z,44.00
2023-06-16T17:15:59.088Z,44.40
2023-06-16T17:18:26.643Z,44.70
2023-06-16T17:20:55.691Z,44.90
2023-06-16T17:23:22.391Z,45.30
2023-06-16T17:25:51.819Z,45.50
2023-06-16T17:28:18.505Z,45.60
2023-06-16T17:30:45.597Z,45.70
2023-06-16T17:33:12.260Z,45.90
2023-06-16T17:35:38.989Z,45.90
2023-06-16T17:38:09.287Z,46.10
2023-06-16T17:40:41.393Z,46.10
2023-06-16T17:43:12.898Z,46.10
2023-06-16T17:45:39.556Z,46.10
2023-06-16T17:48:11.439Z,46.00
2023-06-16T17:50:44.542Z,45.90
2023-06-16T17:53:12.536Z,45.60
2023-06-16T17:55:43.996Z,45.50
2023-06-16T17:58:10.883Z,45.40
2023-06-16T18:00:40.525Z,45.30
2023-06-16T18:03:07.348Z,45.20
2023-06-16T18:05:36.465Z,45.10
2023-06-16T18:08:03.197Z,45.00
2023-06-16T18:10:29.813Z,44.80
2023-06-16T18:12:58.783Z,44.60
2023-06-16T18:15:26.671Z,44.30
2023-06-16T18:17:53.378Z,43.80
2023-06-16T18:20:20.462Z,43.20
2023-06-16T18:22:47.307Z,42.50
2023-06-16T18:25:21.534Z,41.80
2023-06-16T18:27:50.351Z,41.00
2023-06-16T18:30:18.520Z,40.30
2023-06-16T18:32:56.556Z,39.60
2023-06-16T18:35:25.351Z,39.00
2023-06-16T18:37:54.670Z,38.30
2023-06-16T18:40:26.711Z,37.60
2023-06-16T18:42:53.353Z,37.00
2023-06-16T18:45:20.281Z,36.50
2023-06-16T18:47:50.583Z,35.90
2023-06-16T18:50:19.338Z,35.40
2023-06-16T18:52:46.441Z,34.90
2023-06-16T18:55:15.531Z,34.50
2023-06-16T18:57:42.257Z,34.10
2023-06-16T19:00:09.571Z,33.60
2023-06-16T19:02:45.440Z,33.30
2023-06-16T19:05:14.573Z,32.90
2023-06-16T19:07:42.781Z,32.50
2023-06-16T19:10:14.857Z,32.20
2023-06-16T19:12:41.704Z,32.00
2023-06-16T19:15:12.989Z,31.70
2023-06-16T19:17:39.606Z,31.40
2023-06-16T19:20:09.422Z,31.10
2023-06-16T19:22:36.596Z,30.80
2023-06-16T19:25:05.559Z,30.60
2023-06-16T19:27:34.453Z,30.40
2023-06-16T19:30:06.431Z,30.20
2023-06-16T19:32:33.784Z,30.00
2023-06-16T19:35:03.200Z,29.90
2023-06-16T19:37:41.310Z,29.70
2023-06-16T19:40:13.293Z,29.60
2023-06-16T19:42:44.809Z,29.40
2023-06-16T19:45:14.401Z,29.20
2023-06-16T19:47:43.519Z,29.00
2023-06-16T19:50:15.243Z,28.80
2023-06-16T19:52:44.300Z,28.70
2023-06-16T19:55:11.170Z,28.50
2023-06-16T19:57:39.051Z,28.30
2023-06-16T20:00:11.195Z,28.10
2023-06-16T20:02:43.395Z,27.90
2023-06-16T20:05:21.284Z,27.70
2023-06-16T20:07:55.356Z,27.50
2023-06-16T20:10:28.622Z,27.40
2023-06-16T20:12:56.806Z,27.20
2023-06-16T20:15:26.367Z,27.10
2023-06-16T20:17:55.653Z,26.90
2023-06-16T20:20:25.798Z,26.70
2023-06-16T20:22:52.471Z,26.60
2023-06-16T20:25:19.259Z,26.50
2023-06-16T20:27:51.738Z,26.30
2023-06-16T20:30:25.033Z,26.20
2023-06-16T20:32:57.331Z,26.00
2023-06-16T20:35:28.510Z,25.90
2023-06-16T20:37:57.682Z,25.80
2023-06-16T20:40:30.054Z,25.60
2023-06-16T20:42:59.650Z,25.50
2023-06-16T20:45:28.403Z,25.40
2023-06-16T20:47:57.955Z,25.20
2023-06-16T20:50:30.964Z,25.10
2023-06-16T20:53:00.510Z,25.00
2023-06-16T20:55:30.064Z,24.90
2023-06-16T20:58:00.370Z,24.80
2023-06-16T21:00:33.321Z,24.70
2023-06-16T21:03:02.461Z,24.60
2023-06-16T21:05:30.019Z,24.50
2023-06-16T21:07:59.366Z,24.40
2023-06-16T21:10:28.396Z,24.30
2023-06-16T21:12:55.381Z,24.20
2023-06-16T21:15:23.574Z,24.10
2023-06-16T21:17:56.554Z,24.00
2023-06-16T21:20:25.588Z,23.90
2023-06-16T21:22:57.493Z,23.80
2023-06-16T21:25:26.511Z,23.70
2023-06-16T21:27:53.125Z,23.60
2023-06-16T21:30:22.706Z,23.50
2023-06-16T21:32:49.512Z,23.40
2023-06-16T21:35:18.559Z,23.30
2023-06-16T21:37:46.886Z,23.20
2023-06-16T21:40:15.355Z,23.20
2023-06-16T21:42:44.739Z,23.10
2023-06-16T21:45:15.206Z,23.00
2023-06-16T21:47:47.363Z,22.90
2023-06-16T21:50:14.182Z,22.80
2023-06-16T21:52:41.625Z,22.80
2023-06-16T21:55:10.771Z,22.70
2023-06-16T21:57:41.800Z,22.60
2023-06-16T22:00:09.280Z,22.60
2023-06-16T22:02:36.409Z,22.50
2023-06-16T22:05:11.966Z,22.40
2023-06-16T22:07:41.892Z,22.40
2023-06-16T22:10:15.550Z,22.40
2023-06-16T22:12:44.726Z,22.30
2023-06-16T22:15:13.931Z,22.20
2023-06-16T22:17:40.577Z,22.20
2023-06-16T22:20:14.528Z,22.10
2023-06-16T22:22:42.377Z,22.10
2023-06-16T22:25:13.640Z,22.00
2023-06-16T22:27:42.766Z,21.90
2023-06-16T22:30:14.890Z,21.90
2023-06-16T22:32:41.672Z,21.80
2023-06-16T22:35:12.850Z,21.70
2023-06-16T22:37:39.474Z,21.60
2023-06-16T22:40:14.163Z,21.60
2023-06-16T22:42:41.248Z,21.50
2023-06-16T22:45:10.770Z,21.40
2023-06-16T22:47:42.564Z,21.40
2023-06-16T22:50:13.873Z,21.30
2023-06-16T22:52:45.804Z,21.20
2023-06-16T22:55:17.823Z,21.10
2023-06-16T22:57:44.751Z,21.00
2023-06-16T23:00:15.001Z,20.90
2023-06-16T23:02:41.758Z,20.90
2023-06-16T23:05:11.813Z,20.80
2023-06-16T23:07:41.274Z,20.70
2023-06-16T23:10:10.795Z,20.70
2023-06-16T23:12:37.451Z,20.60
2023-06-16T23:15:06.807Z,20.50
2023-06-16T23:17:33.473Z,20.50
2023-06-16T23:20:00.275Z,20.40
2023-06-16T23:22:35.078Z,20.30
2023-06-16T23:25:02.512Z,20.30
2023-06-16T23:27:29.892Z,20.30
2023-06-16T23:30:04.869Z,20.20
2023-06-16T23:32:31.946Z,20.10
2023-06-16T23:34:59.772Z,20.00
2023-06-16T23:37:31.373Z,20.00
2023-06-16T23:40:08.691Z,19.90
2023-06-16T23:42:37.886Z,19.90
2023-06-16T23:45:09.694Z,19.90
2023-06-16T23:47:38.924Z,19.80
2023-06-16T23:50:16.580Z,19.70
2023-06-16T23:52:45.647Z,19.70
2023-06-16T23:55:12.348Z,19.60
2023-06-16T23:57:39.017Z,19.60
